Time;durP1;ratioP1;P1;durP2;ratioP2;P2;SDS_P1;SDS_P2;PMS_P1;PMS_P2;Temp;Humidity;BMP_temperature;BMP_pressure;BME280_temperature;BME280_humidity;BME280_pressure;Samples;Min_cycle;Max_cycle;Signal;HPM_P1;HPM_P2
2023/10/11 00:01:12;;;;;;;20.87;7.43;;;;;;;14.97;100.00;100975.25;7368664;19;20459;-41
2023/10/11 00:03:52;;;;;;;12.73;6.63;;;;;;;14.98;100.00;100982.22;7395587;19;20466;-42
2023/10/11 00:06:22;;;;;;;13.50;6.60;;;;;;;14.96;100.00;100989.09;7369629;19;20390;-41
2023/10/11 00:08:52;;;;;;;13.27;5.83;;;;;;;14.88;100.00;100988.00;7390558;19;20447;-43
2023/10/11 00:11:27;;;;;;;12.67;6.50;;;;;;;14.95;100.00;100978.66;7367110;19;20430;-43
2023/10/11 00:13:57;;;;;;;23.43;8.07;;;;;;;14.87;100.00;100978.44;7390070;19;20415;-42
2023/10/11 00:16:31;;;;;;;18.90;7.40;;;;;;;14.84;100.00;100979.25;7367661;19;20412;-42
2023/10/11 00:19:01;;;;;;;13.07;6.70;;;;;;;14.86;100.00;100976.69;7390454;19;20741;-44
2023/10/11 00:21:40;;;;;;;12.10;6.30;;;;;;;14.86;100.00;100968.88;7368481;19;20437;-43
2023/10/11 00:24:10;;;;;;;11.70;5.80;;;;;;;14.83;100.00;100974.88;7394178;19;21257;-42
2023/10/11 00:26:44;;;;;;;14.97;6.90;;;;;;;14.80;100.00;100969.59;7368501;19;20393;-43
2023/10/11 00:29:14;;;;;;;18.30;6.33;;;;;;;14.81;100.00;100973.06;7389934;19;20392;-41
2023/10/11 00:31:45;;;;;;;12.57;5.97;;;;;;;14.75;100.00;100973.78;7366102;19;20817;-42
2023/10/11 00:34:15;;;;;;;16.17;5.97;;;;;;;14.81;100.00;100967.88;7390503;19;20402;-44
2023/10/11 00:36:49;;;;;;;13.70;6.50;;;;;;;14.80;100.00;100972.19;7365620;19;20391;-45
2023/10/11 00:39:19;;;;;;;13.60;6.33;;;;;;;14.79;100.00;100973.03;7391500;19;20399;-41
2023/10/11 00:41:53;;;;;;;13.33;6.57;;;;;;;14.77;100.00;100963.44;7370234;19;20434;-43
2023/10/11 00:44:23;;;;;;;14.20;6.67;;;;;;;14.75;100.00;100959.91;7395948;19;20420;-42
2023/10/11 00:46:57;;;;;;;14.73;6.60;;;;;;;14.75;100.00;100957.31;7376854;19;20906;-41
2023/10/11 00:49:35;;;;;;;15.10;7.10;;;;;;;14.76;100.00;100964.28;7399956;19;20423;-44
2023/10/11 00:52:06;;;;;;;11.50;5.70;;;;;;;14.74;100.00;100960.72;7372752;19;20901;-41
2023/10/11 00:54:37;;;;;;;14.27;6.57;;;;;;;14.72;100.00;100969.34;7395658;19;20388;-43
2023/10/11 00:57:11;;;;;;;15.60;5.43;;;;;;;14.63;100.00;100958.72;7374954;19;20398;-44
2023/10/11 00:59:41;;;;;;;15.57;6.23;;;;;;;14.62;100.00;100956.97;7395847;19;20817;-43
2023/10/11 01:02:14;;;;;;;12.27;5.93;;;;;;;14.66;100.00;100948.41;7372491;19;20865;-43
2023/10/11 01:04:44;;;;;;;12.53;5.70;;;;;;;14.63;100.00;100943.13;7397378;19;20933;-42
2023/10/11 01:07:14;;;;;;;12.40;5.90;;;;;;;14.65;100.00;100941.47;7374295;19;20395;-44
2023/10/11 01:09:44;;;;;;;14.77;5.73;;;;;;;14.58;100.00;100939.53;7398495;19;20959;-43
2023/10/11 01:12:25;;;;;;;12.57;6.27;;;;;;;14.54;100.00;100937.66;7371163;19;20430;-45
2023/10/11 01:15:01;;;;;;;15.87;6.17;;;;;;;14.57;100.00;100930.84;7398740;19;20478;-44
2023/10/11 01:17:32;;;;;;;11.50;5.97;;;;;;;14.51;100.00;100922.03;7376365;19;20443;-42
2023/10/11 01:20:05;;;;;;;15.83;6.83;;;;;;;14.49;100.00;100919.38;7401187;19;20407;-43
2023/10/11 01:22:37;;;;;;;14.17;5.40;;;;;;;14.49;100.00;100919.38;7373999;19;20454;-43
2023/10/11 01:25:08;;;;;;;12.43;5.77;;;;;;;14.45;100.00;100907.13;7400292;19;20403;-42
2023/10/11 01:27:38;;;;;;;10.90;5.63;;;;;;;14.44;100.00;100908.88;7376322;19;20430;-41
2023/10/11 01:30:09;;;;;;;10.83;5.63;;;;;;;14.40;100.00;100904.41;7398002;19;20491;-43
2023/10/11 01:32:41;;;;;;;13.43;6.10;;;;;;;14.44;100.00;100895.88;7373122;19;20453;-42
2023/10/11 01:35:14;;;;;;;12.70;6.23;;;;;;;14.43;100.00;100891.53;7400619;19;20391;-42
2023/10/11 01:37:46;;;;;;;15.27;6.77;;;;;;;14.36;100.00;100886.13;7377058;19;20438;-42
2023/10/11 01:40:21;;;;;;;16.40;5.60;;;;;;;14.36;100.00;100891.31;7387922;19;20407;-44
2023/10/11 01:42:51;;;;;;;12.30;5.57;;;;;;;14.33;100.00;100879.13;7397901;19;20450;-43
2023/10/11 01:45:23;;;;;;;12.40;5.80;;;;;;;14.30;100.00;100881.63;7376607;19;20413;-42
2023/10/11 01:47:56;;;;;;;13.17;6.80;;;;;;;14.31;100.00;100879.09;7396249;19;20411;-43
2023/10/11 01:50:28;;;;;;;16.40;6.37;;;;;;;14.32;100.00;100872.19;7378447;19;20763;-45
2023/10/11 01:53:03;;;;;;;15.03;5.80;;;;;;;14.34;100.00;100862.72;7395472;19;20419;-42
2023/10/11 01:55:33;;;;;;;16.73;6.50;;;;;;;14.33;100.00;100850.59;7377692;19;20403;-42
2023/10/11 01:58:06;;;;;;;15.23;7.90;;;;;;;14.31;100.00;100853.13;7398984;19;20463;-42
2023/10/11 02:00:36;;;;;;;11.87;5.50;;;;;;;14.31;100.00;100852.28;7374466;19;20404;-43
2023/10/11 02:03:08;;;;;;;16.70;6.37;;;;;;;14.28;100.00;100844.38;7398197;19;20471;-42
2023/10/11 02:05:39;;;;;;;11.67;5.77;;;;;;;14.23;100.00;100844.25;7373428;19;20379;-41
2023/10/11 02:08:13;;;;;;;9.33;5.60;;;;;;;14.20;100.00;100836.38;7397027;19;20412;-43
2023/10/11 02:10:44;;;;;;;19.80;6.53;;;;;;;14.23;100.00;100831.28;7375445;19;20412;-43
2023/10/11 02:13:15;;;;;;;18.93;6.47;;;;;;;14.22;100.00;100823.44;7396766;19;20395;-44
2023/10/11 02:15:47;;;;;;;14.53;6.60;;;;;;;14.22;100.00;100833.84;7373620;19;20395;-42
2023/10/11 02:18:17;;;;;;;14.23;7.23;;;;;;;14.21;100.00;100829.47;7397629;19;20429;-42
2023/10/11 02:20:50;;;;;;;12.83;5.93;;;;;;;14.18;100.00;100825.97;7374570;19;20419;-42
2023/10/11 02:23:23;;;;;;;11.67;5.67;;;;;;;14.17;100.00;100815.53;7396312;19;20406;-42
2023/10/11 02:25:52;;;;;;;13.50;6.80;;;;;;;14.11;100.00;100818.81;7374939;19;20456;-47
2023/10/11 02:28:22;;;;;;;10.83;6.27;;;;;;;14.14;100.00;100803.38;7396796;19;20412;-42
2023/10/11 02:30:52;;;;;;;10.27;5.30;;;;;;;14.20;100.00;100799.19;7373596;19;20454;-42
2023/10/11 02:33:22;;;;;;;18.87;8.00;;;;;;;14.13;100.00;100791.22;7398396;19;20399;-45
2023/10/11 02:35:56;;;;;;;11.70;5.87;;;;;;;14.09;100.00;100775.56;7372025;19;20475;-46
2023/10/11 02:38:28;;;;;;;17.83;6.97;;;;;;;14.16;100.00;100778.31;7399375;19;20429;-44
2023/10/11 02:40:58;;;;;;;14.20;6.33;;;;;;;14.16;100.00;100780.06;7372743;19;20431;-47
2023/10/11 02:43:33;;;;;;;11.97;5.43;;;;;;;14.14;100.00;100776.53;7398732;19;20410;-44
2023/10/11 02:46:04;;;;;;;17.07;6.97;;;;;;;14.18;100.00;100771.50;7373906;19;20406;-46
2023/10/11 02:48:33;;;;;;;13.73;6.63;;;;;;;14.23;100.00;100775.91;7396367;19;20407;-44
2023/10/11 02:51:14;;;;;;;13.67;6.50;;;;;;;14.19;100.00;100777.53;7372281;19;20459;-45
2023/10/11 02:53:46;;;;;;;16.80;5.67;;;;;;;14.18;100.00;100779.28;7397593;19;20395;-42
2023/10/11 02:56:16;;;;;;;12.03;6.10;;;;;;;14.10;100.00;100774.72;7372711;19;20441;-43
2023/10/11 02:58:49;;;;;;;18.40;7.40;;;;;;;14.13;100.00;100767.88;7395970;19;20411;-47
2023/10/11 03:01:20;;;;;;;13.37;6.57;;;;;;;14.13;100.00;100759.22;7373165;19;20551;-44
2023/10/11 03:03:52;;;;;;;16.17;6.30;;;;;;;14.11;100.00;100756.56;7392411;19;20429;-42
2023/10/11 03:06:22;;;;;;;14.80;6.27;;;;;;;14.18;100.00;100761.09;7373159;19;20399;-47
2023/10/11 03:08:54;;;;;;;17.10;6.03;;;;;;;14.17;100.00;100751.53;7397218;19;20412;-43
2023/10/11 03:11:25;;;;;;;15.27;6.70;;;;;;;14.16;100.00;100749.78;7372467;19;20446;-42
2023/10/11 03:13:55;;;;;;;15.63;7.00;;;;;;;14.17;100.00;100750.69;7398472;19;20421;-45
2023/10/11 03:16:25;;;;;;;12.03;6.50;;;;;;;14.17;100.00;100751.53;7373303;19;20852;-46
2023/10/11 03:18:55;;;;;;;16.20;6.93;;;;;;;14.14;100.00;100751.47;7397072;19;20424;-46
2023/10/11 03:21:34;;;;;;;12.73;6.67;;;;;;;14.15;100.00;100732.47;7371719;19;20447;-44
2023/10/11 03:24:06;;;;;;;15.47;6.80;;;;;;;14.14;100.00;100720.34;7395525;19;20825;-43
2023/10/11 03:26:38;;;;;;;17.03;6.70;;;;;;;14.12;100.00;100729.81;7370189;19;20435;-46
2023/10/11 03:29:17;;;;;;;13.40;7.00;;;;;;;14.13;100.00;100717.69;7397081;19;20831;-43
2023/10/11 03:31:48;;;;;;;14.70;7.30;;;;;;;14.09;100.00;100708.09;7371385;19;20522;-41
2023/10/11 03:34:19;;;;;;;12.93;7.60;;;;;;;14.12;100.00;100696.09;7396818;19;20400;-45
2023/10/11 03:36:52;;;;;;;13.63;6.70;;;;;;;14.12;100.00;100697.78;7370061;19;20445;-45
2023/10/11 03:39:39;;;;;;;18.57;7.77;;;;;;;14.10;100.00;100694.28;7397710;19;20407;-45
2023/10/11 03:42:14;;;;;;;13.07;6.60;;;;;;;14.11;100.00;100688.25;7369628;19;21000;-43
2023/10/11 03:44:46;;;;;;;17.30;7.10;;;;;;;14.06;100.00;100677.75;7395516;19;20407;-43
2023/10/11 03:47:24;;;;;;;14.60;7.33;;;;;;;14.09;100.00;100664.84;7369463;19;20435;-42
2023/10/11 03:49:53;;;;;;;17.13;7.00;;;;;;;14.10;100.00;100653.63;7396230;19;20749;-41
2023/10/11 03:52:25;;;;;;;15.37;8.10;;;;;;;14.11;100.00;100647.59;7368326;19;20447;-47
2023/10/11 03:55:05;;;;;;;13.13;6.87;;;;;;;14.05;100.00;100647.44;7394058;19;20459;-42
2023/10/11 03:57:37;;;;;;;14.20;7.50;;;;;;;14.06;100.00;100648.34;7369626;19;20498;-42
2023/10/11 04:00:24;;;;;;;16.23;7.97;;;;;;;14.01;100.00;100645.63;7395070;19;20419;-43
2023/10/11 04:02:58;;;;;;;15.63;7.03;;;;;;;14.05;100.00;100637.06;7370444;19;20454;-43
2023/10/11 04:05:34;;;;;;;19.60;8.70;;;;;;;14.09;100.00;100627.69;7374062;19;20413;-43
2023/10/11 04:08:06;;;;;;;17.50;7.67;;;;;;;14.06;100.00;100637.97;7393115;19;20422;-43
2023/10/11 04:10:43;;;;;;;14.87;6.90;;;;;;;14.04;100.00;100624.94;7371552;19;20380;-44
2023/10/11 04:13:18;;;;;;;15.40;7.53;;;;;;;14.03;100.00;100628.38;7394967;19;20807;-43
2023/10/11 04:15:49;;;;;;;13.40;7.63;;;;;;;14.02;100.00;100621.44;7369422;19;20402;-42
2023/10/11 04:18:33;;;;;;;12.90;7.00;;;;;;;14.01;100.00;100614.50;7389727;19;20515;-42
2023/10/11 04:21:25;;;;;;;22.50;7.77;;;;;;;14.01;100.00;100614.50;7365294;19;20454;-44
2023/10/11 04:23:58;;;;;;;16.80;7.43;;;;;;;14.04;100.00;100623.25;7386466;19;20415;-43
2023/10/11 04:26:33;;;;;;;22.67;7.13;;;;;;;14.03;100.00;100618.00;7365301;19;20458;-43
2023/10/11 04:29:06;;;;;;;15.90;8.13;;;;;;;14.06;100.00;100612.91;7387356;19;20410;-41
2023/10/11 04:31:55;;;;;;;19.40;8.40;;;;;;;14.01;100.00;100611.91;7364206;19;21395;-41
2023/10/11 04:34:31;;;;;;;15.10;7.20;;;;;;;14.02;100.00;100616.25;7388189;19;20411;-41
2023/10/11 04:37:06;;;;;;;17.50;8.07;;;;;;;14.04;100.00;100620.66;7364687;19;20509;-42
2023/10/11 04:39:49;;;;;;;17.10;7.57;;;;;;;14.06;100.00;100623.28;7387457;19;20418;-44
2023/10/11 04:42:29;;;;;;;15.27;7.20;;;;;;;14.02;100.00;100631.81;7356498;19;20446;-42
2023/10/11 04:44:59;;;;;;;17.00;7.37;;;;;;;14.01;100.00;100624.88;7389043;19;20415;-42
2023/10/11 04:47:50;;;;;;;18.60;8.33;;;;;;;13.95;100.00;100623.00;7363844;19;21005;-43
2023/10/11 04:50:22;;;;;;;18.53;8.53;;;;;;;13.97;100.00;100625.63;7364226;19;20399;-43
2023/10/11 04:52:56;;;;;;;16.93;7.77;;;;;;;13.97;100.00;100625.63;7385357;19;20435;-45
2023/10/11 04:55:34;;;;;;;17.93;8.10;;;;;;;13.98;100.00;100619.59;7364530;19;20462;-42
2023/10/11 04:58:07;;;;;;;19.03;7.80;;;;;;;14.00;100.00;100617.94;7387654;19;20542;-43
2023/10/11 05:00:44;;;;;;;16.60;7.10;;;;;;;13.99;100.00;100621.34;7363819;19;20388;-44
2023/10/11 05:03:12;;;;;;;15.90;7.83;;;;;;;13.97;100.00;100623.03;7386476;19;20413;-46
2023/10/11 05:05:58;;;;;;;21.67;8.13;;;;;;;13.93;100.00;100627.28;7365821;19;20434;-47
2023/10/11 05:08:51;;;;;;;15.00;7.57;;;;;;;13.93;100.00;100621.22;7383438;19;20497;-42
2023/10/11 05:11:32;;;;;;;18.57;7.30;;;;;;;13.88;100.00;100629.75;7363680;19;20459;-42
2023/10/11 05:14:10;;;;;;;14.30;7.70;;;;;;;13.91;100.00;100619.44;7387879;19;20490;-42
2023/10/11 05:16:44;;;;;;;14.00;7.17;;;;;;;13.88;100.00;100616.78;7363349;19;20502;-46
2023/10/11 05:19:20;;;;;;;15.60;8.17;;;;;;;13.89;100.00;100610.75;7386766;19;20418;-44
2023/10/11 05:21:52;;;;;;;14.73;7.37;;;;;;;13.87;100.00;100617.63;7363326;19;20457;-44
2023/10/11 05:24:44;;;;;;;19.27;8.37;;;;;;;13.90;100.00;100622.88;7385976;19;20400;-42
2023/10/11 05:27:25;;;;;;;16.63;7.53;;;;;;;13.88;100.00;100623.69;7365213;19;20450;-47
2023/10/11 05:30:13;;;;;;;14.90;7.07;;;;;;;13.86;100.00;100607.22;7396044;19;20443;-45
2023/10/11 05:32:41;;;;;;;16.70;7.30;;;;;;;13.91;100.00;100611.66;7369764;19;20819;-44
2023/10/11 05:35:25;;;;;;;18.37;7.07;;;;;;;13.86;100.00;100608.09;7393055;19;20407;-47
2023/10/11 05:51:43;;;;;;;20.83;8.57;;;;;;;13.90;100.00;100643.63;7373515;19;20443;-45
2023/10/11 05:54:13;;;;;;;17.20;7.87;;;;;;;13.91;100.00;100655.75;7401129;19;20416;-47
2023/10/11 05:56:47;;;;;;;20.80;8.47;;;;;;;13.95;100.00;100655.84;7373407;19;20447;-45
2023/10/11 05:59:17;;;;;;;14.63;8.10;;;;;;;13.95;100.00;100663.63;7398469;19;20406;-44
2023/10/11 06:01:52;;;;;;;18.53;8.60;;;;;;;13.98;100.00;100654.22;7370696;19;20463;-44
2023/10/11 06:04:23;;;;;;;25.33;13.27;;;;;;;14.02;100.00;100655.16;7393673;19;20422;-42
2023/10/11 06:06:57;;;;;;;47.53;20.33;;;;;;;14.12;100.00;100649.38;7376206;19;20426;-45
2023/10/11 06:09:30;;;;;;;14.50;8.50;;;;;;;14.10;100.00;100648.44;7399566;19;20483;-43
2023/10/11 06:12:00;;;;;;;22.83;9.70;;;;;;;14.08;100.00;100642.34;7371492;19;20446;-46
2023/10/11 06:14:32;;;;;;;32.43;12.80;;;;;;;14.13;100.00;100635.56;7399649;19;20403;-48
2023/10/11 06:17:05;;;;;;;37.83;18.93;;;;;;;14.14;100.00;100632.13;7373727;19;20513;-42
2023/10/11 06:19:35;;;;;;;59.40;26.00;;;;;;;14.18;100.00;100627.91;7399222;19;21005;-43
2023/10/11 06:22:09;;;;;;;64.70;26.53;;;;;;;14.18;100.00;100641.75;7372349;19;20455;-44
2023/10/11 06:24:39;;;;;;;41.40;19.50;;;;;;;14.21;100.00;100642.66;7394024;19;20767;-43
2023/10/11 06:28:09;;;;;;;39.73;19.17;;;;;;;14.18;100.00;100633.97;7373329;19;20439;-46
2023/10/11 06:30:09;;;;;;;18.73;9.03;;;;;;;14.21;100.00;100637.47;7396227;19;20419;-43
2023/10/11 06:32:42;;;;;;;22.03;9.00;;;;;;;14.22;100.00;100631.44;7371725;19;20451;-49
2023/10/11 06:35:23;;;;;;;55.60;23.53;;;;;;;14.30;100.00;100642.88;7396770;19;20935;-43
2023/10/11 06:37:54;;;;;;;37.03;16.93;;;;;;;14.32;100.00;100651.59;7368588;19;20442;-43
2023/10/11 06:40:38;;;;;;;26.37;12.17;;;;;;;14.36;100.00;100650.81;7368405;19;20460;-44
2023/10/11 06:43:08;;;;;;;37.83;17.30;;;;;;;14.41;100.00;100651.81;7387989;19;20419;-43
2023/10/11 06:45:40;;;;;;;38.60;16.47;;;;;;;14.38;100.00;100651.75;7367011;19;21527;-46
2023/10/11 06:48:14;;;;;;;26.13;11.13;;;;;;;14.39;100.00;100645.72;7390149;19;20399;-44
2023/10/11 06:50:46;;;;;;;44.10;19.43;;;;;;;14.39;100.00;100627.56;7366579;19;20498;-45
2023/10/11 06:53:17;;;;;;;43.63;18.70;;;;;;;14.48;100.00;100629.50;7390055;19;20783;-43
2023/10/11 06:55:47;;;;;;;46.13;21.47;;;;;;;14.51;100.00;100632.13;7367476;19;20427;-42
2023/10/11 06:58:19;;;;;;;19.63;7.60;;;;;;;14.52;100.00;100643.41;7388762;19;20403;-46
2023/10/11 07:00:49;;;;;;;21.10;9.53;;;;;;;14.49;100.00;100632.94;7368132;19;20423;-45
2023/10/11 07:03:29;;;;;;;17.10;8.60;;;;;;;14.53;100.00;100640.88;7387562;19;20414;-43
2023/10/11 07:06:10;;;;;;;24.87;7.93;;;;;;;14.53;100.00;100656.44;7367270;19;20415;-45
2023/10/11 07:08:49;;;;;;;42.33;18.10;;;;;;;14.55;100.00;100661.66;7388647;19;20412;-45
2023/10/11 07:11:40;;;;;;;19.33;8.20;;;;;;;14.57;100.00;100683.34;7366405;19;20447;-42
2023/10/11 07:14:14;;;;;;;21.30;9.40;;;;;;;14.56;100.00;100687.66;7386876;19;20404;-47
2023/10/11 07:16:45;;;;;;;42.07;17.83;;;;;;;14.61;100.00;100687.75;7366669;19;20501;-48
2023/10/11 07:19:19;;;;;;;25.60;10.87;;;;;;;14.63;100.00;100672.22;7388926;19;20429;-43
2023/10/11 07:21:56;;;;;;;30.67;14.13;;;;;;;14.65;100.00;100671.41;7365427;19;20463;-44
2023/10/11 07:24:38;;;;;;;17.03;7.90;;;;;;;14.66;100.00;100667.97;7388039;19;20764;-43
2023/10/11 07:27:12;;;;;;;28.33;12.90;;;;;;;14.75;100.00;100689.81;7367191;19;20522;-46
2023/10/11 07:29:42;;;;;;;28.63;11.87;;;;;;;14.73;100.00;100700.16;7388446;19;20403;-43
2023/10/11 07:32:18;;;;;;;24.20;9.63;;;;;;;14.77;100.00;100699.41;7362548;19;20856;-45
2023/10/11 07:34:49;;;;;;;19.33;9.93;;;;;;;14.77;100.00;100703.75;7390565;19;21429;-46
2023/10/11 07:37:26;;;;;;;27.53;12.97;;;;;;;14.77;100.00;100691.63;7365028;19;20923;-48
2023/10/11 07:40:00;;;;;;;21.17;8.43;;;;;;;14.75;100.00;100682.03;7389645;19;20414;-43
2023/10/11 07:42:37;;;;;;;21.27;9.50;;;;;;;14.79;100.00;100683.88;7364778;19;20457;-43
2023/10/11 07:45:12;;;;;;;40.33;16.90;;;;;;;14.79;100.00;100674.38;7390292;19;20403;-44
2023/10/11 07:47:45;;;;;;;31.20;13.03;;;;;;;14.80;100.00;100675.25;7367068;19;20431;-45
2023/10/11 07:50:22;;;;;;;38.30;17.43;;;;;;;14.88;100.00;100672.81;7377245;19;20415;-45
2023/10/11 07:52:53;;;;;;;29.90;12.50;;;;;;;14.87;100.00;100674.53;7388030;19;20447;-45
2023/10/11 07:55:26;;;;;;;21.07;9.47;;;;;;;14.87;100.00;100676.28;7367074;19;20407;-45
2023/10/11 07:57:59;;;;;;;25.20;11.80;;;;;;;14.88;100.00;100678.91;7378107;19;22054;-45
2023/10/11 08:00:30;;;;;;;24.40;10.90;;;;;;;14.89;100.00;100674.56;7351120;19;20403;-43
2023/10/11 08:03:05;;;;;;;22.03;8.60;;;;;;;14.87;100.00;100682.31;7371232;19;20400;-44
2023/10/11 08:05:45;;;;;;;24.10;11.80;;;;;;;14.92;100.00;100672.91;7349440;19;20383;-46
2023/10/11 08:08:20;;;;;;;31.80;12.40;;;;;;;14.95;100.00;100662.63;7387575;19;20437;-45
2023/10/11 08:10:52;;;;;;;25.53;13.10;;;;;;;14.96;100.00;100679.94;7366715;19;20506;-44
2023/10/11 08:13:26;;;;;;;24.00;9.00;;;;;;;14.97;100.00;100673.91;7389639;19;20415;-44
2023/10/11 08:15:59;;;;;;;14.20;7.47;;;;;;;14.95;100.00;100673.00;7369791;19;20433;-48
2023/10/11 08:18:29;;;;;;;24.03;10.40;;;;;;;14.97;100.00;100660.91;7392152;19;20411;-45
2023/10/11 08:21:03;;;;;;;19.73;9.87;;;;;;;14.99;100.00;100677.41;7366625;19;20427;-42
2023/10/11 08:23:33;;;;;;;25.37;12.20;;;;;;;15.05;100.00;100673.19;7393168;19;20416;-46
2023/10/11 08:26:07;;;;;;;18.27;9.20;;;;;;;15.08;100.00;100660.28;7368980;19;20395;-43
2023/10/11 08:28:46;;;;;;;18.07;9.70;;;;;;;15.04;100.00;100664.53;7391143;19;20974;-43
2023/10/11 08:31:26;;;;;;;18.40;9.97;;;;;;;15.11;100.00;100660.34;7367029;19;20434;-44
2023/10/11 08:33:56;;;;;;;30.60;12.23;;;;;;;15.13;100.00;100663.88;7391294;19;20410;-43
2023/10/11 08:36:30;;;;;;;20.30;8.20;;;;;;;15.16;100.00;100663.03;7366301;19;20957;-43
2023/10/11 08:39:02;;;;;;;16.27;9.23;;;;;;;15.22;100.00;100658.84;7392640;19;20399;-44
2023/10/11 08:41:34;;;;;;;22.20;10.23;;;;;;;15.21;100.00;100651.91;7368619;19;20439;-43
2023/10/11 08:44:14;;;;;;;58.60;22.87;;;;;;;15.25;100.00;100663.25;7393357;19;20418;-45
2023/10/11 08:46:48;;;;;;;24.00;9.00;;;;;;;15.34;100.00;100654.75;7366427;19;20479;-46
2023/10/11 08:49:18;;;;;;;18.33;8.40;;;;;;;15.34;100.00;100666.00;7390982;19;20406;-43
2023/10/11 08:51:53;;;;;;;21.73;10.37;;;;;;;15.37;100.00;100688.59;7365469;19;20469;-46
2023/10/11 08:54:26;;;;;;;23.27;9.60;;;;;;;15.38;100.00;100685.16;7394334;19;20471;-42
2023/10/11 08:56:57;;;;;;;27.53;14.80;;;;;;;15.41;100.00;100685.22;7367180;19;20497;-42
2023/10/11 08:59:30;;;;;;;20.03;8.50;;;;;;;15.34;100.00;100683.34;7391057;19;20412;-44
2023/10/11 09:02:07;;;;;;;16.60;8.30;;;;;;;15.35;100.00;100680.78;7367005;19;20465;-42
2023/10/11 09:04:38;;;;;;;18.27;7.87;;;;;;;15.30;100.00;100674.63;7399323;19;20802;-44
2023/10/11 09:07:13;;;;;;;19.73;8.90;;;;;;;15.32;100.00;100672.03;7376310;19;20471;-44
2023/10/11 09:09:45;;;;;;;19.80;8.00;;;;;;;15.35;100.00;100666.91;7398236;19;20466;-47
2023/10/11 09:12:26;;;;;;;26.27;8.10;;;;;;;15.35;100.00;100659.09;7371452;19;20470;-42
2023/10/11 09:15:00;;;;;;;21.63;9.83;;;;;;;15.35;100.00;100659.09;7395723;19;20465;-43
2023/10/11 09:17:38;;;;;;;19.10;8.70;;;;;;;15.37;100.00;100655.69;7373279;19;20717;-44
2023/10/11 09:20:15;;;;;;;22.00;9.43;;;;;;;15.43;100.00;100647.13;7396461;19;20395;-43
2023/10/11 09:22:52;;;;;;;20.50;8.73;;;;;;;15.44;100.00;100643.69;7371256;19;20430;-44
2023/10/11 09:25:33;;;;;;;30.70;9.47;;;;;;;15.41;100.00;100648.84;7375268;19;20471;-43
2023/10/11 09:28:06;;;;;;;17.73;8.57;;;;;;;15.48;100.00;100661.09;7396207;19;20380;-43
2023/10/11 09:30:44;;;;;;;18.90;8.07;;;;;;;15.46;100.00;100673.22;7371319;19;20397;-43
2023/10/11 09:33:20;;;;;;;15.60;9.83;;;;;;;15.49;100.00;100668.06;7395951;19;20754;-42
2023/10/11 09:35:50;;;;;;;28.00;10.40;;;;;;;15.52;100.00;100681.13;7373316;19;20992;-43
2023/10/11 09:38:23;;;;;;;22.77;9.40;;;;;;;15.51;100.00;100692.38;7393080;19;20384;-43
2023/10/11 09:40:54;;;;;;;26.47;10.03;;;;;;;15.48;100.00;100696.63;7373313;19;20415;-47
2023/10/11 09:43:24;;;;;;;17.33;9.43;;;;;;;15.50;100.00;100700.13;7394105;19;20391;-42
2023/10/11 09:45:54;;;;;;;17.97;9.07;;;;;;;15.45;100.00;100697.44;7375446;19;20399;-44
2023/10/11 09:48:25;;;;;;;22.50;8.97;;;;;;;15.44;100.00;100695.66;7394385;19;20404;-42
2023/10/11 09:50:57;;;;;;;25.23;9.50;;;;;;;15.47;100.00;100689.66;7373510;19;20422;-42
2023/10/11 09:53:30;;;;;;;27.70;8.90;;;;;;;15.43;100.00;100688.72;7393626;19;20402;-44
2023/10/11 09:56:04;;;;;;;27.07;10.57;;;;;;;15.44;100.00;100687.00;7372597;19;20403;-42
2023/10/11 09:58:41;;;;;;;16.63;8.53;;;;;;;15.44;100.00;100693.06;7393510;19;20806;-44
2023/10/11 10:01:18;;;;;;;25.40;10.17;;;;;;;15.41;100.00;100674.81;7371652;19;20443;-43
2023/10/11 10:03:52;;;;;;;15.33;7.10;;;;;;;15.42;100.00;100686.97;7395605;19;20400;-42
2023/10/11 10:06:22;;;;;;;27.53;9.93;;;;;;;15.43;100.00;100677.47;7372721;19;20426;-42
2023/10/11 10:09:26;;;;;;;28.00;9.53;;;;;;;15.44;100.00;100680.06;7395116;19;20387;-42
2023/10/11 10:12:20;;;;;;;19.90;9.90;;;;;;;15.42;100.00;100676.56;7370276;19;20431;-42
2023/10/11 10:15:04;;;;;;;20.90;10.00;;;;;;;15.45;100.00;100666.25;7393963;19;20396;-42
2023/10/11 10:17:34;;;;;;;22.97;10.40;;;;;;;15.41;100.00;100668.75;7372163;19;21052;-42
2023/10/11 10:20:34;;;;;;;23.20;11.30;;;;;;;15.45;100.00;100665.38;7400672;19;20773;-44
2023/10/11 10:23:29;;;;;;;24.40;10.73;;;;;;;15.45;100.00;100660.16;7372693;19;20427;-42
2023/10/11 10:26:44;;;;;;;28.93;10.03;;;;;;;15.47;100.00;100667.16;7376448;19;20403;-44
2023/10/11 10:29:16;;;;;;;21.67;11.03;;;;;;;15.44;100.00;100669.69;7393270;19;20383;-43
2023/10/11 10:32:05;;;;;;;26.83;10.70;;;;;;;15.45;100.00;100660.16;7370417;19;21066;-44
2023/10/11 10:34:34;;;;;;;24.83;10.00;;;;;;;15.41;100.00;100653.13;7395609;19;20383;-44
2023/10/11 10:37:08;;;;;;;23.27;10.07;;;;;;;15.34;100.00;100646.97;7368905;19;20411;-42
2023/10/11 10:39:50;;;;;;;19.93;8.67;;;;;;;15.30;100.00;100634.75;7396954;19;20423;-44
2023/10/11 10:42:19;;;;;;;22.70;10.73;;;;;;;15.33;100.00;100609.69;7369447;19;20491;-42
2023/10/11 10:45:01;;;;;;;20.97;10.40;;;;;;;15.27;100.00;100599.16;7396036;19;20420;-42
2023/10/11 10:47:31;;;;;;;21.10;11.00;;;;;;;15.14;100.00;100585.06;7371532;19;20416;-43
2023/10/11 10:50:21;;;;;;;20.23;10.30;;;;;;;15.08;100.00;100582.34;7393263;19;20403;-43
2023/10/11 10:52:51;;;;;;;22.83;12.03;;;;;;;15.03;100.00;100565.78;7369517;19;20447;-43
2023/10/11 10:55:20;;;;;;;32.33;14.07;;;;;;;15.05;100.00;100546.78;7372968;19;20398;-46
2023/10/11 10:57:49;;;;;;;26.40;12.17;;;;;;;15.05;100.00;100545.88;7391834;19;20451;-43
2023/10/11 11:00:32;;;;;;;23.13;12.70;;;;;;;15.04;100.00;100538.94;7372479;19;20391;-42
2023/10/11 11:03:00;;;;;;;26.40;11.30;;;;;;;14.95;100.00;100539.63;7391169;19;20419;-42
2023/10/11 11:05:39;;;;;;;24.70;13.60;;;;;;;14.93;100.00;100524.00;7369774;19;20400;-42
2023/10/11 11:08:15;;;;;;;27.50;12.77;;;;;;;14.84;100.00;100509.16;7391687;19;20872;-42
2023/10/11 11:10:54;;;;;;;30.17;13.20;;;;;;;14.79;100.00;100512.47;7372102;19;20411;-43
2023/10/11 11:13:22;;;;;;;28.40;13.30;;;;;;;14.75;100.00;100505.47;7394231;19;20380;-46
2023/10/11 11:15:56;;;;;;;26.73;12.63;;;;;;;14.69;100.00;100501.00;7370724;19;20466;-43
2023/10/11 11:18:33;;;;;;;26.60;13.17;;;;;;;14.67;100.00;100487.13;7390951;19;20464;-42
2023/10/11 11:21:17;;;;;;;25.10;13.27;;;;;;;14.66;100.00;100470.66;7370399;19;21049;-43
2023/10/11 11:23:45;;;;;;;27.10;12.90;;;;;;;14.64;100.00;100446.38;7392534;19;20383;-42
2023/10/11 11:26:18;;;;;;;39.00;14.50;;;;;;;14.66;100.00;100449.88;7369858;19;20415;-44
2023/10/11 11:28:51;;;;;;;29.17;15.57;;;;;;;14.66;100.00;100449.03;7391577;19;20377;-45
2023/10/11 11:31:38;;;;;;;24.20;15.27;;;;;;;14.69;100.00;100439.56;7368880;19;20423;-47
2023/10/11 11:34:11;;;;;;;26.53;14.73;;;;;;;14.70;100.00;100436.13;7391812;19;20380;-45
2023/10/11 11:36:43;;;;;;;27.83;15.37;;;;;;;14.71;100.00;100443.06;7368329;19;20402;-43
2023/10/11 11:39:26;;;;;;;31.57;14.90;;;;;;;14.78;100.00;100443.22;7391669;19;20417;-44
2023/10/11 11:41:58;;;;;;;33.30;16.73;;;;;;;14.85;100.00;100438.19;7367895;19;20455;-45
2023/10/11 11:44:27;;;;;;;32.87;15.67;;;;;;;14.89;100.00;100430.44;7390855;19;20417;-43
2023/10/11 11:47:04;;;;;;;31.13;16.90;;;;;;;14.97;100.00;100421.94;7369840;19;20395;-45
2023/10/11 11:49:35;;;;;;;35.10;16.60;;;;;;;15.01;100.00;100422.00;7393588;19;20390;-43
2023/10/11 11:52:02;;;;;;;36.33;16.27;;;;;;;15.12;100.00;100415.25;7365927;19;20435;-41
2023/10/11 11:54:32;;;;;;;33.10;15.83;;;;;;;15.23;100.00;100403.31;7389723;19;20994;-43